Latest Coastal Weather Observations for Point Stuart

IDD60701

Issued at 11:21 pm CST Monday 6 July 2015 (issued every 10 minutes, with the page automatically refreshed every 10 minutes)

About coastal observations | Map of coastal stations | Coastal observations for NT | Marine services | Other Formats
Station Details ID: 014254 Name: POINT STUART Lat: -12.24 Lon: 131.88 Height: 1.0 m
Data from the previous 72 hours. | See also: Recent months for locations in Northern Territory
Date/Time
CST
Temp

°C
Wind Pressure Rain
since 9am
mm
Weather Cloud Vis
km
Sea
Height
m
Swell
Dir
 
Speed
knots
Gust
knots
hPa Trend Height
m
Period
s
Dir
06/11:00pm 24.9 NNE 7 9 1012.1 - 0.0 - - - - - - -
06/10:30pm 25.2 N 7 11 1012.1 - 0.0 - - - - - - -
06/10:00pm 25.2 N 7 9 1012.2 - 0.0 - - - - - - -
06/09:30pm 25.5 N 8 11 1012.1 - 0.0 - - - - - - -
06/09:00pm 25.5 NNE 7 11 1012.1 - 0.0 - - - - - - -
06/08:30pm 25.5 N 6 8 1012.0 - 0.0 - - - - - - -
06/08:00pm 25.4 N 5 7 1011.7 - 0.0 - - - - - - -
06/07:30pm 25.4 N 4 6 1011.3 - 0.0 - - - - - - -
06/07:00pm 25.8 N 4 6 1011.0 - 0.0 - - - - - - -
06/06:30pm 26.4 N 6 8 1010.7 - 0.0 - - - - - - -
06/06:00pm 27.3 NNE 8 12 1010.5 - 0.0 - - - - - - -
06/05:30pm 28.3 NNE 9 13 1010.2 - 0.0 - - - - - - -
06/05:00pm 28.9 NNE 9 14 1010.0 - 0.0 - - - - - - -
06/04:30pm 29.5 NNE 9 14 1010.0 - 0.0 - - - - - - -
06/04:00pm 30.3 NE 11 16 1010.0 - 0.0 - - - - - - -
06/03:30pm 30.6 N 12 17 1010.1 - 0.0 - - - - - - -
06/03:00pm 30.8 NNE 10 16 1010.4 - 0.0 - - - - - - -
06/02:30pm 30.8 NNE 9 13 1010.7 - 0.0 - - - - - - -
06/02:00pm 30.2 NNE 9 13 1011.2 - 0.0 - - - - - - -
06/01:30pm 30.4 NE 11 15 1011.7 - 0.0 - - - - - - -
06/01:00pm 29.4 NE 13 17 1012.0 - 0.0 - - - - - - -
06/12:30pm 29.5 NE 11 15 1012.7 - 0.0 - - - - - - -
06/12:00pm 28.1 NE 10 16 1013.1 - 0.0 - - - - - - -
06/11:30am 27.9 ENE 12 15 1013.4 - 0.0 - - - - - - -
06/11:00am 27.1 NNE 13 18 1013.7 - 0.0 - - - - - - -
06/10:30am 26.9 ENE 12 15 1013.9 - 0.0 - - - - - - -
06/10:00am 26.6 E 9 13 1014.3 - 0.0 - - - - - - -
06/09:30am 25.8 E 10 14 1014.3 - 0.0 - - - - - - -
06/09:00am 24.8 E 9 11 1014.2 - 0.0 - - - - - - -
06/08:30am 23.5 E 7 9 1014.1 - 0.0 - - - - - - -
06/08:00am 22.2 E 7 9 1013.8 - 0.0 - - - - - - -
06/07:30am 20.9 E 6 7 1013.6 - 0.0 - - - - - - -
06/07:00am 20.4 E 6 8 1013.2 - 0.0 - - - - - - -
06/06:30am 21.4 E 6 8 1012.9 - 0.0 - - - - - - -
06/06:00am 22.1 E 7 9 1012.8 - 0.0 - - - - - - -
06/05:30am 22.4 ENE 9 13 1012.6 - 0.0 - - - - - - -
06/05:00am 21.9 E 8 11 1012.4 - 0.0 - - - - - - -
06/04:30am 19.7 E 4 5 1012.4 - 0.0 - - - - - - -
06/04:00am 19.2 ENE 4 5 1012.3 - 0.0 - - - - - - -
06/03:30am 19.8 E 3 4 1012.4 - 0.0 - - - - - - -
06/03:00am 19.3 CALM 0 3 1012.6 - 0.0 - - - - - - -
06/02:30am 19.8 CALM 0 3 1012.7 - 0.0 - - - - - - -
06/02:00am 20.3 CALM 0 0 1012.9 - 0.0 - - - - - - -
06/01:30am 21.4 ESE 5 9 1012.8 - 0.0 - - - - - - -
06/01:00am 24.2 NE 7 9 1012.7 - 0.0 - - - - - - -
06/12:30am 20.9 E 3 5 1012.7 - 0.0 - - - - - - -
06/12:00am 21.0 N 1 3 1012.8 - 0.0 - - - - - - -
 
Date/Time
CST
Temp

°C
Wind Pressure Rain
since 9am
mm
Weather Cloud Vis
km
Sea
Height
m
Swell
Dir
 
Speed
knots
Gust
knots
hPa Trend Height
m
Period
s
Dir
05/11:30pm 21.0 N 3 4 1013.1 - 0.0 - - - - - - -
05/11:00pm 20.9 N 2 3 1013.3 - 0.0 - - - - - - -
05/10:30pm 21.2 CALM 0 0 1013.3 - 0.0 - - - - - - -
05/10:00pm 21.4 CALM 0 0 1013.3 - 0.0 - - - - - - -
05/09:30pm 21.2 W 3 6 1013.3 - 0.0 - - - - - - -
05/09:00pm 22.3 CALM 0 0 1013.1 - 0.0 - - - - - - -
05/08:30pm 22.9 CALM 0 0 1012.7 - 0.0 - - - - - - -
05/08:00pm 23.1 CALM 0 0 1012.5 - 0.0 - - - - - - -
05/07:30pm 23.3 WNW 3 4 1012.2 - 0.0 - - - - - - -
05/07:00pm 23.8 WNW 5 6 1012.0 - 0.0 - - - - - - -
05/06:30pm 24.8 WNW 5 6 1011.8 - 0.0 - - - - - - -
05/06:00pm 26.5 NW 7 9 1011.6 - 0.0 - - - - - - -
05/05:30pm 27.6 NW 8 10 1011.4 - 0.0 - - - - - - -
05/05:00pm 28.5 NW 9 11 1011.4 - 0.0 - - - - - - -
05/04:30pm 29.0 NNW 7 11 1011.3 - 0.0 - - - - - - -
05/04:00pm 29.5 NNW 9 12 1011.4 - 0.0 - - - - - - -
05/03:30pm 28.6 NNW 8 12 1011.6 - 0.0 - - - - - - -
05/03:00pm 28.9 NNW 7 16 1011.7 - 0.0 - - - - - - -
05/02:30pm 29.8 N 6 9 1011.9 - 0.0 - - - - - - -
05/02:00pm 30.4 N 7 13 1012.4 - 0.0 - - - - - - -
05/01:30pm 29.9 NNE 7 11 1012.6 - 0.0 - - - - - - -
05/01:00pm 29.7 NE 7 11 1013.1 - 0.0 - - - - - - -
05/12:30pm 29.9 NE 8 12 1013.5 - 0.0 - - - - - - -
05/12:00pm 28.4 NE 9 13 1013.9 - 0.0 - - - - - - -
05/11:30am 28.2 ENE 11 14 1014.3 - 0.0 - - - - - - -
05/11:00am 28.5 ENE 10 13 1014.7 - 0.0 - - - - - - -
05/10:30am 27.0 ESE 9 14 1014.9 - 0.0 - - - - - - -
05/10:00am 26.5 SE 9 14 1014.8 - 0.0 - - - - - - -
05/09:30am 25.2 SE 7 11 1015.2 - 0.0 - - - - - - -
05/09:00am 23.4 SE 6 7 1015.2 - 0.0 - - - - - - -
05/08:30am 22.4 ESE 4 5 1015.2 - 0.0 - - - - - - -
05/08:00am 21.2 E 3 4 1015.1 - 0.0 - - - - - - -
05/07:30am 18.6 ESE 4 5 1014.8 - 0.0 - - - - - - -
05/07:00am 17.9 ESE 3 4 1014.3 - 0.0 - - - - - - -
05/06:30am 17.8 SSE 4 5 1014.0 - 0.0 - - - - - - -
05/06:00am 17.2 SE 3 5 1013.8 - 0.0 - - - - - - -
05/05:30am 16.9 S 5 6 1013.5 - 0.0 - - - - - - -
05/05:00am 17.3 ESE 3 4 1013.5 - 0.0 - - - - - - -
05/04:30am 17.1 E 6 7 1013.5 - 0.0 - - - - - - -
05/04:00am 16.8 N 5 6 1013.2 - 0.0 - - - - - - -
05/03:30am 17.0 CALM 0 0 1012.9 - 0.0 - - - - - - -
05/03:00am 16.7 S 1 3 1013.1 - 0.0 - - - - - - -
05/02:30am 17.4 CALM 0 0 1013.2 - 0.0 - - - - - - -
05/02:00am 17.5 SSW 3 4 1013.4 - 0.0 - - - - - - -
05/01:30am 18.1 S 4 5 1013.6 - 0.0 - - - - - - -
05/01:00am 18.1 SSW 5 6 1013.7 - 0.0 - - - - - - -
05/12:30am 18.2 S 5 6 1013.8 - 0.0 - - - - - - -
05/12:00am 18.3 SSW 4 5 1013.6 - 0.0 - - - - - - -
 
Date/Time
CST
Temp

°C
Wind Pressure Rain
since 9am
mm
Weather Cloud Vis
km
Sea
Height
m
Swell
Dir
 
Speed
knots
Gust
knots
hPa Trend Height
m
Period
s
Dir
04/11:30pm 19.0 SW 5 6 1013.5 - 0.0 - - - - - - -
04/11:00pm 19.7 SSW 4 7 1013.7 - 0.0 - - - - - - -
04/10:30pm 18.4 SSW 8 13 1013.3 - 0.0 - - - - - - -
04/10:00pm 18.3 SSW 5 6 1013.1 - 0.0 - - - - - - -
04/09:30pm 19.0 N 3 4 1012.9 - 0.0 - - - - - - -
04/09:00pm 19.8 N 4 4 1012.6 - 0.0 - - - - - - -
04/08:30pm 20.2 N 5 5 1012.4 - 0.0 - - - - - - -
04/08:00pm 20.5 N 4 5 1012.1 - 0.0 - - - - - - -
04/07:30pm 21.1 N 4 5 1011.8 - 0.0 - - - - - - -
04/07:00pm 23.5 N 5 7 1011.5 - 0.0 - - - - - - -
04/06:30pm 24.6 N 5 6 1011.4 - 0.0 - - - - - - -
04/06:00pm 26.0 N 5 7 1011.1 - 0.0 - - - - - - -
04/05:30pm 27.4 NNE 5 7 1010.9 - 0.0 - - - - - - -
04/05:00pm 28.3 NNE 5 9 1010.7 - 0.0 - - - - - - -
04/04:30pm 28.5 N 6 10 1010.6 - 0.0 - - - - - - -
04/04:00pm 29.2 NNE 7 11 1010.6 - 0.0 - - - - - - -
04/03:30pm 29.6 NNE 7 10 1010.8 - 0.0 - - - - - - -
04/03:00pm 29.8 NNE 8 11 1011.0 - 0.0 - - - - - - -
04/02:30pm 29.5 NE 9 13 1011.5 - 0.0 - - - - - - -
04/02:00pm 28.6 NE 10 17 1011.9 - 0.0 - - - - - - -
04/01:30pm 29.4 NNE 11 16 1012.3 - 0.0 - - - - - - -
04/01:00pm 28.6 NE 10 14 1012.6 - 0.0 - - - - - - -
04/12:30pm 28.8 NE 12 16 1013.2 - 0.0 - - - - - - -
04/12:00pm 28.2 NNE 10 17 1013.8 - 0.0 - - - - - - -
04/11:30am 27.5 ENE 13 16 1014.5 - 0.0 - - - - - - -
04/11:00am 27.2 ENE 11 16 1014.8 - 0.0 - - - - - - -
04/10:30am 25.8 E 12 17 1015.2 - 0.0 - - - - - - -
04/10:00am 25.2 E 11 15 1015.5 - 0.0 - - - - - - -
04/09:30am 24.1 E 9 12 1015.8 - 0.0 - - - - - - -
04/09:00am 22.7 ESE 9 12 1015.8 - 0.0 - - - - - - -
04/08:30am 21.1 E 8 11 1015.5 - 0.0 - - - - - - -
04/08:00am 19.5 ESE 7 8 1015.4 - 0.0 - - - - - - -
04/07:30am 16.6 SE 4 6 1015.0 - 0.0 - - - - - - -
04/07:00am 16.2 SE 5 6 1014.8 - 0.0 - - - - - - -
04/06:30am 17.0 SE 4 6 1014.6 - 0.0 - - - - - - -
04/06:00am 17.9 SE 7 8 1014.3 - 0.0 - - - - - - -
04/05:30am 18.7 ESE 7 9 1014.2 - 0.0 - - - - - - -
04/05:00am 18.0 ESE 6 7 1014.1 - 0.0 - - - - - - -
04/04:30am 18.1 ESE 5 6 1014.0 - 0.0 - - - - - - -
04/04:00am 18.3 E 4 5 1013.9 - 0.0 - - - - - - -
04/03:30am 18.7 E 5 6 1013.8 - 0.0 - - - - - - -
04/03:00am 19.9 E 6 7 1014.0 - 0.0 - - - - - - -
04/02:30am 20.3 E 6 8 1014.1 - 0.0 - - - - - - -
04/02:00am 19.8 E 6 7 1014.2 - 0.0 - - - - - - -
04/01:30am 20.8 E 4 5 1014.2 - 0.0 - - - - - - -
04/01:00am 21.2 ENE 4 5 1014.2 - 0.0 - - - - - - -
04/12:30am 23.3 ESE 8 11 1014.1 - 0.0 - - - - - - -
04/12:00am 23.6 E 7 10 1014.3 - 0.0 - - - - - - -
 
Date/Time
CST
Temp

°C
Wind Pressure Rain
since 9am
mm
Weather Cloud Vis
km
Sea
Height
m
Swell
Dir
 
Speed
knots
Gust
knots
hPa Trend Height
m
Period
s
Dir
03/11:30pm 22.3 N 5 7 1014.3 - 0.0 - - - - - - -

Other Formats:

Comma delimited format used in spreadsheet applications
http://www.bom.gov.au/fwo/IDD60701/IDD60701.94127.axf

JavaScript Object Notation format (JSON) in row-major order
http://www.bom.gov.au/fwo/IDD60701/IDD60701.94127.json